Pagrindinis puslapis
METAR-TAF:

METAR-TAF

Oro uostai :

Krabi, Tailandas

platuma: 08-06-03N, ilguma: 098-59-05E, Aukštis: 25 m

Dabartinis oras

Ataskaita buvo paskelbta 1 valandą ir 8 minutes, ne 19:00 UTC
Vėjas 1 kt iš Šiaurės/Šiaurės Vakarų
Temperatūra 24°C
Drėgmė 100%
Slėgis 1010 hPa
Matomumas: 8000 m
Mažai debesys ne aukštis 2000 ft

METAR: VTSG 201900Z 33001KT 8000 FEW020 24/24 Q1010 NOSIG

Laikas: 03:08 (20:08 UTC)

Prognozė

Ataskaita buvo paskelbta 3 valandos ir 8 minutes, ne 17:00 UTC
Prognozė galioja nuo 20 metu 18 UTC su 21 metu 18 UTC
Vėjas kt iš Šiaurės
Matomumas 10 km arba daugiau
Išsisklaidę debesys ne aukštis 2000 ft
Tapsmas
nuo 20 metu 20 UTC su 20 metu 22 UTC
Matomumas: 5000 m
rūkana
Tapsmas
nuo 21 metu 00 UTC su 21 metu 02 UTC
Vėjas 6 kt iš Vakarų/Pietvakarių
Matomumas 10 km arba daugiau
Tapsmas
nuo 21 metu 12 UTC su 21 metu 14 UTC
Vėjas kt iš Šiaurės

TAF: VTSG 201700Z 2018/2118 00000KT 9999 SCT020 BECMG 2020/2022 5000 BR BECMG 2100/2102 24006KT 9999 NSW BECMG 2112/2114 00000KT

Orai ataskaitas ir orų prognozės (METAR, TAF).

turimą stotys yra geltonos ir raudonos taškus žemėlapyje.

Perkelti pele per norėdami pamatyti stoties vardą.

Tada spustelėkite, norėdami matyti oro stebėjimo ir prognozės.

Norėdami pakeisti žemėlapį: spustelėkite ant žalios mygtukų su juodo kryžiaus žemyn,; žalią mygtuką su brūkšneliu, jei norite nutolinti; arba žalių rodyklių gretimoms žemėlapius.


METAR-TAF: